KGRR/GRR METAR and TAF weather

Enter ICAO airport designator
Station Type Date Time Source
KGRR METAR 2021/04/14 19:53 UTC NOAA

KGRR 141953Z 26015G21KT 10SM OVC045 07/M03 A3002 RMK AO2 SLP172 T00671033 $


Station Type Date Time Source
KGRR Decoded METAR 2021/04/14 19:53 UTC NOAA

GERALD R. FORD INTERNATIONAL, MI, United States (KGRR) 42-53N 085-31W 239M
Apr 14, 2021 - 03:53 PM EDT / 2021.04.14 1953 UTC
Wind: from the W (260 degrees) at 17 MPH (15 KT) gusting to 24 MPH (21 KT):0
Visibility: 10 mile(s):0
Sky conditions: overcast
Temperature: 44.1 F (6.7 C)
Dew Point: 26.1 F (-3.3 C)
Relative Humidity: 48%
Pressure (altimeter): 30.02 in. Hg (1016 hPa)
ob: KGRR 141953Z 26015G21KT 10SM OVC045 07/M03 A3002 RMK AO2 SLP172 T00671033
cycle: 20

Station Type Date Time Source
KGRR TAF 2021/04/14 18:42 UTC NOAA

TAF KGRR 141741Z 1418/1518 28012G18KT P6SM BKN040
FM150700 29009G16KT P6SM VCSH BKN015
FM151100 31012G20KT 5SM -RASN BR BKN009
FM151600 32014G26KT P6SM BKN015

Example: see airport list